sensor_id;sensor_type;location;lat;lon;timestamp;temperature;humidity
30385;DHT22;17181;51.002;4.096;2022-10-20T00:01:26;14.10;99.90
30385;DHT22;17181;51.002;4.096;2022-10-20T00:03:53;14.10;99.90
30385;DHT22;17181;51.002;4.096;2022-10-20T00:06:28;14.00;99.90
30385;DHT22;17181;51.002;4.096;2022-10-20T00:08:56;14.00;99.90
30385;DHT22;17181;51.002;4.096;2022-10-20T00:11:23;14.00;99.90
30385;DHT22;17181;51.002;4.096;2022-10-20T00:13:51;14.00;99.90
30385;DHT22;17181;51.002;4.096;2022-10-20T00:16:17;14.00;99.90
30385;DHT22;17181;51.002;4.096;2022-10-20T00:18:44;13.90;99.90
30385;DHT22;17181;51.002;4.096;2022-10-20T00:21:13;14.00;99.90
30385;DHT22;17181;51.002;4.096;2022-10-20T00:23:40;13.90;99.90
30385;DHT22;17181;51.002;4.096;2022-10-20T00:26:23;13.90;99.90
30385;DHT22;17181;51.002;4.096;2022-10-20T00:28:50;13.90;99.90
30385;DHT22;17181;51.002;4.096;2022-10-20T00:31:17;13.80;99.90
30385;DHT22;17181;51.002;4.096;2022-10-20T00:33:43;13.80;99.90
30385;DHT22;17181;51.002;4.096;2022-10-20T00:36:13;13.80;99.90
30385;DHT22;17181;51.002;4.096;2022-10-20T00:38:40;13.80;99.90
30385;DHT22;17181;51.002;4.096;2022-10-20T00:41:06;13.80;99.90
30385;DHT22;17181;51.002;4.096;2022-10-20T00:44:00;13.80;99.90
30385;DHT22;17181;51.002;4.096;2022-10-20T00:46:40;13.70;99.90
30385;DHT22;17181;51.002;4.096;2022-10-20T00:49:13;13.70;99.90
30385;DHT22;17181;51.002;4.096;2022-10-20T00:51:41;13.70;99.90
30385;DHT22;17181;51.002;4.096;2022-10-20T00:54:11;13.70;99.90
30385;DHT22;17181;51.002;4.096;2022-10-20T00:56:40;13.70;99.90
30385;DHT22;17181;51.002;4.096;2022-10-20T00:59:07;13.70;99.90
30385;DHT22;17181;51.002;4.096;2022-10-20T01:01:34;13.60;99.90
30385;DHT22;17181;51.002;4.096;2022-10-20T01:04:00;13.60;99.90
30385;DHT22;17181;51.002;4.096;2022-10-20T01:06:27;13.60;99.90
30385;DHT22;17181;51.002;4.096;2022-10-20T01:08:53;13.60;99.90
30385;DHT22;17181;51.002;4.096;2022-10-20T01:11:34;13.60;99.90
30385;DHT22;17181;51.002;4.096;2022-10-20T01:17:15;13.60;99.90
30385;DHT22;17181;51.002;4.096;2022-10-20T01:19:51;13.60;99.90
30385;DHT22;17181;51.002;4.096;2022-10-20T01:28:16;13.50;99.90
30385;DHT22;17181;51.002;4.096;2022-10-20T01:30:46;13.50;99.90
30385;DHT22;17181;51.002;4.096;2022-10-20T01:38:36;13.60;99.90
30385;DHT22;17181;51.002;4.096;2022-10-20T01:41:20;13.60;99.90
30385;DHT22;17181;51.002;4.096;2022-10-20T01:43:49;13.60;99.90
30385;DHT22;17181;51.002;4.096;2022-10-20T01:46:18;13.60;99.90
30385;DHT22;17181;51.002;4.096;2022-10-20T01:48:47;13.60;99.90
30385;DHT22;17181;51.002;4.096;2022-10-20T01:51:13;13.60;99.90
30385;DHT22;17181;51.002;4.096;2022-10-20T01:53:39;13.60;99.90
30385;DHT22;17181;51.002;4.096;2022-10-20T01:56:05;13.60;99.90
30385;DHT22;17181;51.002;4.096;2022-10-20T02:04:00;13.60;99.90
30385;DHT22;17181;51.002;4.096;2022-10-20T02:09:07;13.60;99.90
30385;DHT22;17181;51.002;4.096;2022-10-20T02:11:47;13.60;99.90
30385;DHT22;17181;51.002;4.096;2022-10-20T02:14:15;13.60;99.90
30385;DHT22;17181;51.002;4.096;2022-10-20T02:16:51;13.60;99.90
30385;DHT22;17181;51.002;4.096;2022-10-20T02:19:20;13.60;99.90
30385;DHT22;17181;51.002;4.096;2022-10-20T02:21:48;13.60;99.90
30385;DHT22;17181;51.002;4.096;2022-10-20T02:24:16;13.60;99.90
30385;DHT22;17181;51.002;4.096;2022-10-20T02:26:43;13.60;99.90
30385;DHT22;17181;51.002;4.096;2022-10-20T02:29:14;13.60;99.90
30385;DHT22;17181;51.002;4.096;2022-10-20T02:31:42;13.60;99.90
30385;DHT22;17181;51.002;4.096;2022-10-20T02:34:09;13.60;99.90
30385;DHT22;17181;51.002;4.096;2022-10-20T02:36:40;13.60;99.90
30385;DHT22;17181;51.002;4.096;2022-10-20T02:39:07;13.60;99.90
30385;DHT22;17181;51.002;4.096;2022-10-20T02:41:34;13.60;99.90
30385;DHT22;17181;51.002;4.096;2022-10-20T02:44:00;13.50;99.90
30385;DHT22;17181;51.002;4.096;2022-10-20T02:46:26;13.60;99.90
30385;DHT22;17181;51.002;4.096;2022-10-20T02:48:52;13.60;99.90
30385;DHT22;17181;51.002;4.096;2022-10-20T02:51:18;13.50;99.90
30385;DHT22;17181;51.002;4.096;2022-10-20T02:53:44;13.60;99.90
30385;DHT22;17181;51.002;4.096;2022-10-20T02:56:10;13.50;99.90
30385;DHT22;17181;51.002;4.096;2022-10-20T02:58:36;13.60;99.90
30385;DHT22;17181;51.002;4.096;2022-10-20T03:01:03;13.50;99.90
30385;DHT22;17181;51.002;4.096;2022-10-20T03:03:29;13.50;99.90
30385;DHT22;17181;51.002;4.096;2022-10-20T03:05:55;13.50;99.90
30385;DHT22;17181;51.002;4.096;2022-10-20T03:08:21;13.50;99.90
30385;DHT22;17181;51.002;4.096;2022-10-20T03:10:47;13.50;99.90
30385;DHT22;17181;51.002;4.096;2022-10-20T03:13:12;13.50;99.90
30385;DHT22;17181;51.002;4.096;2022-10-20T03:15:40;13.50;99.90
30385;DHT22;17181;51.002;4.096;2022-10-20T03:18:06;13.50;99.90
30385;DHT22;17181;51.002;4.096;2022-10-20T03:20:32;13.50;99.90
30385;DHT22;17181;51.002;4.096;2022-10-20T03:22:58;13.50;99.90
30385;DHT22;17181;51.002;4.096;2022-10-20T03:25:24;13.50;99.90
30385;DHT22;17181;51.002;4.096;2022-10-20T03:27:51;13.50;99.90
30385;DHT22;17181;51.002;4.096;2022-10-20T03:30:17;13.40;99.90
30385;DHT22;17181;51.002;4.096;2022-10-20T03:32:43;13.50;99.90
30385;DHT22;17181;51.002;4.096;2022-10-20T03:35:09;13.40;99.90
30385;DHT22;17181;51.002;4.096;2022-10-20T03:37:35;13.40;99.90
30385;DHT22;17181;51.002;4.096;2022-10-20T03:40:00;13.40;99.90
30385;DHT22;17181;51.002;4.096;2022-10-20T03:42:26;13.40;99.90
30385;DHT22;17181;51.002;4.096;2022-10-20T03:44:52;13.40;99.90
30385;DHT22;17181;51.002;4.096;2022-10-20T03:47:17;13.40;99.90
30385;DHT22;17181;51.002;4.096;2022-10-20T03:49:43;13.40;99.90
30385;DHT22;17181;51.002;4.096;2022-10-20T03:52:09;13.30;99.90
30385;DHT22;17181;51.002;4.096;2022-10-20T03:54:35;13.40;99.90
30385;DHT22;17181;51.002;4.096;2022-10-20T03:57:01;13.30;99.90
30385;DHT22;17181;51.002;4.096;2022-10-20T03:59:27;13.40;99.90
30385;DHT22;17181;51.002;4.096;2022-10-20T04:01:53;13.30;99.90
30385;DHT22;17181;51.002;4.096;2022-10-20T04:04:19;13.30;99.90
30385;DHT22;17181;51.002;4.096;2022-10-20T04:06:44;13.30;99.90
30385;DHT22;17181;51.002;4.096;2022-10-20T04:09:10;13.30;99.90
30385;DHT22;17181;51.002;4.096;2022-10-20T04:11:36;13.20;99.90
30385;DHT22;17181;51.002;4.096;2022-10-20T04:14:02;13.30;99.90
30385;DHT22;17181;51.002;4.096;2022-10-20T04:16:28;13.20;99.90
30385;DHT22;17181;51.002;4.096;2022-10-20T04:18:54;13.20;99.90
30385;DHT22;17181;51.002;4.096;2022-10-20T04:21:20;13.20;99.90
30385;DHT22;17181;51.002;4.096;2022-10-20T04:23:46;13.20;99.90
30385;DHT22;17181;51.002;4.096;2022-10-20T04:26:13;13.20;99.90
30385;DHT22;17181;51.002;4.096;2022-10-20T04:28:39;13.20;99.90
30385;DHT22;17181;51.002;4.096;2022-10-20T04:31:06;13.10;99.90
30385;DHT22;17181;51.002;4.096;2022-10-20T04:33:32;13.10;99.90
30385;DHT22;17181;51.002;4.096;2022-10-20T04:36:00;13.10;99.90
30385;DHT22;17181;51.002;4.096;2022-10-20T04:38:28;13.10;99.90
30385;DHT22;17181;51.002;4.096;2022-10-20T04:40:58;13.10;99.90
30385;DHT22;17181;51.002;4.096;2022-10-20T04:43:24;13.10;99.90
30385;DHT22;17181;51.002;4.096;2022-10-20T04:45:49;13.10;99.90
30385;DHT22;17181;51.002;4.096;2022-10-20T04:48:16;13.10;99.90
30385;DHT22;17181;51.002;4.096;2022-10-20T04:50:42;13.10;99.90
30385;DHT22;17181;51.002;4.096;2022-10-20T04:53:08;13.10;99.90
30385;DHT22;17181;51.002;4.096;2022-10-20T04:55:34;13.10;99.90
30385;DHT22;17181;51.002;4.096;2022-10-20T04:58:00;13.10;99.90
30385;DHT22;17181;51.002;4.096;2022-10-20T05:00:26;13.10;99.90
30385;DHT22;17181;51.002;4.096;2022-10-20T05:02:52;13.10;99.90
30385;DHT22;17181;51.002;4.096;2022-10-20T05:05:19;13.10;99.90
30385;DHT22;17181;51.002;4.096;2022-10-20T05:07:44;13.10;99.90
30385;DHT22;17181;51.002;4.096;2022-10-20T05:10:10;13.10;99.90
30385;DHT22;17181;51.002;4.096;2022-10-20T05:12:36;13.10;99.90
30385;DHT22;17181;51.002;4.096;2022-10-20T05:15:02;13.10;99.90
30385;DHT22;17181;51.002;4.096;2022-10-20T05:17:28;13.10;99.90
30385;DHT22;17181;51.002;4.096;2022-10-20T05:19:54;13.10;99.90
30385;DHT22;17181;51.002;4.096;2022-10-20T05:22:20;13.10;99.90
30385;DHT22;17181;51.002;4.096;2022-10-20T05:24:46;13.10;99.90
30385;DHT22;17181;51.002;4.096;2022-10-20T05:27:12;13.10;99.90
30385;DHT22;17181;51.002;4.096;2022-10-20T05:29:38;13.10;99.90
30385;DHT22;17181;51.002;4.096;2022-10-20T05:32:04;13.20;99.90
30385;DHT22;17181;51.002;4.096;2022-10-20T05:34:29;13.10;99.90
30385;DHT22;17181;51.002;4.096;2022-10-20T05:36:55;13.20;99.90
30385;DHT22;17181;51.002;4.096;2022-10-20T05:39:21;13.20;99.90
30385;DHT22;17181;51.002;4.096;2022-10-20T05:41:47;13.20;99.90
30385;DHT22;17181;51.002;4.096;2022-10-20T05:44:13;13.20;99.90
30385;DHT22;17181;51.002;4.096;2022-10-20T05:46:39;13.20;99.90
30385;DHT22;17181;51.002;4.096;2022-10-20T05:49:06;13.20;99.90
30385;DHT22;17181;51.002;4.096;2022-10-20T05:51:35;13.20;99.90
30385;DHT22;17181;51.002;4.096;2022-10-20T05:54:02;13.20;99.90
30385;DHT22;17181;51.002;4.096;2022-10-20T05:56:29;13.30;99.90
30385;DHT22;17181;51.002;4.096;2022-10-20T05:58:56;13.30;99.90
30385;DHT22;17181;51.002;4.096;2022-10-20T06:01:24;13.30;99.90
30385;DHT22;17181;51.002;4.096;2022-10-20T06:03:58;13.30;99.90
30385;DHT22;17181;51.002;4.096;2022-10-20T06:06:27;13.30;99.90
30385;DHT22;17181;51.002;4.096;2022-10-20T06:08:54;13.30;99.90
30385;DHT22;17181;51.002;4.096;2022-10-20T06:11:21;13.40;99.90
30385;DHT22;17181;51.002;4.096;2022-10-20T06:13:47;13.40;99.90
30385;DHT22;17181;51.002;4.096;2022-10-20T06:16:18;13.40;99.90
30385;DHT22;17181;51.002;4.096;2022-10-20T06:18:44;13.40;99.90
30385;DHT22;17181;51.002;4.096;2022-10-20T06:21:15;13.40;99.90
30385;DHT22;17181;51.002;4.096;2022-10-20T06:23:41;13.50;99.90
30385;DHT22;17181;51.002;4.096;2022-10-20T06:26:12;13.50;99.90
30385;DHT22;17181;51.002;4.096;2022-10-20T06:28:39;13.50;99.90
30385;DHT22;17181;51.002;4.096;2022-10-20T06:33:39;13.60;99.90
30385;DHT22;17181;51.002;4.096;2022-10-20T06:36:05;13.60;99.90
30385;DHT22;17181;51.002;4.096;2022-10-20T06:38:31;13.60;99.90
30385;DHT22;17181;51.002;4.096;2022-10-20T06:41:01;13.60;99.90
30385;DHT22;17181;51.002;4.096;2022-10-20T06:43:27;13.60;99.90
30385;DHT22;17181;51.002;4.096;2022-10-20T06:45:57;13.70;99.90
30385;DHT22;17181;51.002;4.096;2022-10-20T06:48:24;13.70;99.90
30385;DHT22;17181;51.002;4.096;2022-10-20T06:50:57;13.70;99.90
30385;DHT22;17181;51.002;4.096;2022-10-20T06:53:24;13.80;99.90
30385;DHT22;17181;51.002;4.096;2022-10-20T06:55:58;13.80;99.90
30385;DHT22;17181;51.002;4.096;2022-10-20T06:58:25;13.80;99.90
30385;DHT22;17181;51.002;4.096;2022-10-20T07:01:11;13.80;99.90
30385;DHT22;17181;51.002;4.096;2022-10-20T07:03:38;13.90;99.90
30385;DHT22;17181;51.002;4.096;2022-10-20T07:06:05;13.90;99.90
30385;DHT22;17181;51.002;4.096;2022-10-20T07:08:33;13.90;99.90
30385;DHT22;17181;51.002;4.096;2022-10-20T07:11:06;14.00;99.90
30385;DHT22;17181;51.002;4.096;2022-10-20T07:13:33;14.00;99.90
30385;DHT22;17181;51.002;4.096;2022-10-20T07:16:00;14.00;99.90
30385;DHT22;17181;51.002;4.096;2022-10-20T07:18:27;14.10;99.90
30385;DHT22;17181;51.002;4.096;2022-10-20T07:20:57;14.10;99.90
30385;DHT22;17181;51.002;4.096;2022-10-20T07:23:25;14.10;99.90
30385;DHT22;17181;51.002;4.096;2022-10-20T07:25:51;14.20;99.90
30385;DHT22;17181;51.002;4.096;2022-10-20T07:28:17;14.20;99.90
30385;DHT22;17181;51.002;4.096;2022-10-20T07:30:46;14.20;99.90
30385;DHT22;17181;51.002;4.096;2022-10-20T07:33:11;14.20;99.90
30385;DHT22;17181;51.002;4.096;2022-10-20T07:35:38;14.30;99.90
30385;DHT22;17181;51.002;4.096;2022-10-20T07:38:03;14.40;99.90
30385;DHT22;17181;51.002;4.096;2022-10-20T07:40:29;14.40;99.90
30385;DHT22;17181;51.002;4.096;2022-10-20T07:42:55;14.50;99.90
30385;DHT22;17181;51.002;4.096;2022-10-20T07:45:21;14.60;99.90
30385;DHT22;17181;51.002;4.096;2022-10-20T07:47:47;14.60;99.90
30385;DHT22;17181;51.002;4.096;2022-10-20T07:50:13;14.70;99.90
30385;DHT22;17181;51.002;4.096;2022-10-20T07:52:38;14.70;99.90
30385;DHT22;17181;51.002;4.096;2022-10-20T07:55:05;14.80;99.90
30385;DHT22;17181;51.002;4.096;2022-10-20T07:57:31;14.80;99.90
30385;DHT22;17181;51.002;4.096;2022-10-20T07:59:57;14.90;99.90
30385;DHT22;17181;51.002;4.096;2022-10-20T08:02:23;15.00;99.90
30385;DHT22;17181;51.002;4.096;2022-10-20T08:04:49;15.10;99.90
30385;DHT22;17181;51.002;4.096;2022-10-20T08:07:16;15.20;99.90
30385;DHT22;17181;51.002;4.096;2022-10-20T08:09:41;15.30;99.90
30385;DHT22;17181;51.002;4.096;2022-10-20T08:12:07;15.40;99.90
30385;DHT22;17181;51.002;4.096;2022-10-20T08:14:33;15.40;99.90
30385;DHT22;17181;51.002;4.096;2022-10-20T08:17:02;15.50;99.90
30385;DHT22;17181;51.002;4.096;2022-10-20T08:19:28;15.50;99.90
30385;DHT22;17181;51.002;4.096;2022-10-20T08:21:54;15.60;99.90
30385;DHT22;17181;51.002;4.096;2022-10-20T08:24:20;15.70;99.90
30385;DHT22;17181;51.002;4.096;2022-10-20T08:26:46;15.70;99.90
30385;DHT22;17181;51.002;4.096;2022-10-20T08:29:12;15.80;99.90
30385;DHT22;17181;51.002;4.096;2022-10-20T08:31:38;15.80;99.90
30385;DHT22;17181;51.002;4.096;2022-10-20T08:34:05;15.80;99.90
30385;DHT22;17181;51.002;4.096;2022-10-20T08:36:31;15.90;99.90
30385;DHT22;17181;51.002;4.096;2022-10-20T08:38:59;15.90;99.90
30385;DHT22;17181;51.002;4.096;2022-10-20T08:41:29;16.00;99.90
30385;DHT22;17181;51.002;4.096;2022-10-20T08:43:56;16.00;99.90
30385;DHT22;17181;51.002;4.096;2022-10-20T08:46:28;16.10;99.90
30385;DHT22;17181;51.002;4.096;2022-10-20T08:48:54;16.10;99.90
30385;DHT22;17181;51.002;4.096;2022-10-20T08:51:23;16.10;99.90
30385;DHT22;17181;51.002;4.096;2022-10-20T08:53:52;16.10;99.90
30385;DHT22;17181;51.002;4.096;2022-10-20T08:56:23;16.20;99.90
30385;DHT22;17181;51.002;4.096;2022-10-20T08:58:50;16.10;99.90
30385;DHT22;17181;51.002;4.096;2022-10-20T09:01:23;16.20;99.90
30385;DHT22;17181;51.002;4.096;2022-10-20T09:04:09;16.20;99.90
30385;DHT22;17181;51.002;4.096;2022-10-20T09:06:41;16.30;99.90
30385;DHT22;17181;51.002;4.096;2022-10-20T09:09:13;16.30;99.90
30385;DHT22;17181;51.002;4.096;2022-10-20T09:11:41;16.30;99.90
30385;DHT22;17181;51.002;4.096;2022-10-20T09:14:11;16.30;99.90
30385;DHT22;17181;51.002;4.096;2022-10-20T09:16:38;16.40;99.90
30385;DHT22;17181;51.002;4.096;2022-10-20T09:19:20;16.40;99.90
30385;DHT22;17181;51.002;4.096;2022-10-20T09:21:51;16.50;99.90
30385;DHT22;17181;51.002;4.096;2022-10-20T09:24:20;16.50;99.90
30385;DHT22;17181;51.002;4.096;2022-10-20T09:26:49;16.50;99.90
30385;DHT22;17181;51.002;4.096;2022-10-20T09:29:19;16.60;99.90
30385;DHT22;17181;51.002;4.096;2022-10-20T09:31:50;16.70;99.90
30385;DHT22;17181;51.002;4.096;2022-10-20T09:34:28;16.70;99.90
30385;DHT22;17181;51.002;4.096;2022-10-20T09:37:08;16.80;99.90
30385;DHT22;17181;51.002;4.096;2022-10-20T09:39:57;16.80;99.90
30385;DHT22;17181;51.002;4.096;2022-10-20T09:42:29;16.90;99.90
30385;DHT22;17181;51.002;4.096;2022-10-20T09:45:18;17.00;99.90
30385;DHT22;17181;51.002;4.096;2022-10-20T09:47:52;17.10;99.90
30385;DHT22;17181;51.002;4.096;2022-10-20T09:50:39;17.10;99.90
30385;DHT22;17181;51.002;4.096;2022-10-20T09:53:14;17.20;99.90
30385;DHT22;17181;51.002;4.096;2022-10-20T09:55:46;17.30;99.90
30385;DHT22;17181;51.002;4.096;2022-10-20T09:58:33;17.40;99.90
30385;DHT22;17181;51.002;4.096;2022-10-20T10:01:15;17.50;99.90
30385;DHT22;17181;51.002;4.096;2022-10-20T10:03:46;17.60;99.90
30385;DHT22;17181;51.002;4.096;2022-10-20T10:06:39;17.70;99.90
30385;DHT22;17181;51.002;4.096;2022-10-20T10:09:29;17.80;99.90
30385;DHT22;17181;51.002;4.096;2022-10-20T10:15:00;17.90;99.90
30385;DHT22;17181;51.002;4.096;2022-10-20T10:17:35;18.00;99.90
30385;DHT22;17181;51.002;4.096;2022-10-20T10:20:06;18.10;99.90
30385;DHT22;17181;51.002;4.096;2022-10-20T10:22:49;18.10;99.90
30385;DHT22;17181;51.002;4.096;2022-10-20T10:25:35;18.20;99.90
30385;DHT22;17181;51.002;4.096;2022-10-20T10:28:03;18.20;99.90
30385;DHT22;17181;51.002;4.096;2022-10-20T10:30:35;18.20;99.90
30385;DHT22;17181;51.002;4.096;2022-10-20T10:33:27;18.20;99.90
30385;DHT22;17181;51.002;4.096;2022-10-20T10:35:54;18.20;99.90
30385;DHT22;17181;51.002;4.096;2022-10-20T10:38:20;18.20;99.90
30385;DHT22;17181;51.002;4.096;2022-10-20T10:46:35;18.50;99.90
30385;DHT22;17181;51.002;4.096;2022-10-20T10:54:30;18.90;99.90
30385;DHT22;17181;51.002;4.096;2022-10-20T10:57:04;18.90;99.90
30385;DHT22;17181;51.002;4.096;2022-10-20T10:59:35;18.90;99.90
30385;DHT22;17181;51.002;4.096;2022-10-20T11:02:32;18.90;99.90
30385;DHT22;17181;51.002;4.096;2022-10-20T11:13:54;19.20;99.90
30385;DHT22;17181;51.002;4.096;2022-10-20T11:19:19;19.40;99.90
30385;DHT22;17181;51.002;4.096;2022-10-20T11:27:19;19.80;99.90
30385;DHT22;17181;51.002;4.096;2022-10-20T11:29:56;19.90;99.90
30385;DHT22;17181;51.002;4.096;2022-10-20T11:32:39;20.00;99.90
30385;DHT22;17181;51.002;4.096;2022-10-20T11:35:15;20.00;99.90
30385;DHT22;17181;51.002;4.096;2022-10-20T11:38:17;20.00;99.90
30385;DHT22;17181;51.002;4.096;2022-10-20T11:41:10;20.00;99.90
30385;DHT22;17181;51.002;4.096;2022-10-20T11:43:46;19.90;99.90
30385;DHT22;17181;51.002;4.096;2022-10-20T11:46:17;19.90;99.90
30385;DHT22;17181;51.002;4.096;2022-10-20T11:48:53;19.90;99.90
30385;DHT22;17181;51.002;4.096;2022-10-20T12:12:41;20.10;99.90
30385;DHT22;17181;51.002;4.096;2022-10-20T12:15:23;20.30;99.90
30385;DHT22;17181;51.002;4.096;2022-10-20T12:17:50;20.40;99.90
30385;DHT22;17181;51.002;4.096;2022-10-20T12:22:47;20.60;99.90
30385;DHT22;17181;51.002;4.096;2022-10-20T12:30:58;20.80;99.90
30385;DHT22;17181;51.002;4.096;2022-10-20T12:38:43;21.00;99.90
30385;DHT22;17181;51.002;4.096;2022-10-20T12:41:29;21.00;99.90
30385;DHT22;17181;51.002;4.096;2022-10-20T12:44:14;21.10;99.90
30385;DHT22;17181;51.002;4.096;2022-10-20T12:46:50;21.10;99.90
30385;DHT22;17181;51.002;4.096;2022-10-20T12:49:30;21.20;99.90
30385;DHT22;17181;51.002;4.096;2022-10-20T12:51:57;21.30;99.90
30385;DHT22;17181;51.002;4.096;2022-10-20T12:54:36;21.30;99.90
30385;DHT22;17181;51.002;4.096;2022-10-20T12:57:32;21.40;99.90
30385;DHT22;17181;51.002;4.096;2022-10-20T13:02:55;21.60;99.90
30385;DHT22;17181;51.002;4.096;2022-10-20T13:05:41;21.60;99.90
30385;DHT22;17181;51.002;4.096;2022-10-20T13:10:50;21.80;99.90
30385;DHT22;17181;51.002;4.096;2022-10-20T13:20:48;21.90;99.90
30385;DHT22;17181;51.002;4.096;2022-10-20T13:23:27;21.90;99.90
30385;DHT22;17181;51.002;4.096;2022-10-20T13:25:58;21.90;99.90
30385;DHT22;17181;51.002;4.096;2022-10-20T13:28:30;21.90;99.90
30385;DHT22;17181;51.002;4.096;2022-10-20T13:31:06;21.90;99.90
30385;DHT22;17181;51.002;4.096;2022-10-20T13:36:22;21.90;99.90
30385;DHT22;17181;51.002;4.096;2022-10-20T13:38:59;22.00;99.90
30385;DHT22;17181;51.002;4.096;2022-10-20T13:41:33;22.00;99.90
30385;DHT22;17181;51.002;4.096;2022-10-20T13:44:43;22.00;99.90
30385;DHT22;17181;51.002;4.096;2022-10-20T13:50:12;22.70;99.90
30385;DHT22;17181;51.002;4.096;2022-10-20T13:52:45;23.30;99.90
30385;DHT22;17181;51.002;4.096;2022-10-20T13:55:17;24.10;99.90
30385;DHT22;17181;51.002;4.096;2022-10-20T13:57:52;24.80;99.90
30385;DHT22;17181;51.002;4.096;2022-10-20T14:00:30;25.50;99.90
30385;DHT22;17181;51.002;4.096;2022-10-20T14:03:13;26.10;99.90
30385;DHT22;17181;51.002;4.096;2022-10-20T14:05:39;26.70;98.80
30385;DHT22;17181;51.002;4.096;2022-10-20T14:08:09;27.10;95.80
30385;DHT22;17181;51.002;4.096;2022-10-20T14:10:47;27.30;94.30
30385;DHT22;17181;51.002;4.096;2022-10-20T14:13:15;27.50;93.70
30385;DHT22;17181;51.002;4.096;2022-10-20T14:15:48;27.70;93.30
30385;DHT22;17181;51.002;4.096;2022-10-20T14:18:28;27.90;91.90
30385;DHT22;17181;51.002;4.096;2022-10-20T14:21:03;28.10;91.00
30385;DHT22;17181;51.002;4.096;2022-10-20T14:23:34;28.10;90.50
30385;DHT22;17181;51.002;4.096;2022-10-20T14:26:02;28.20;90.00
30385;DHT22;17181;51.002;4.096;2022-10-20T14:28:31;28.20;87.90
30385;DHT22;17181;51.002;4.096;2022-10-20T14:30:59;28.30;88.40
30385;DHT22;17181;51.002;4.096;2022-10-20T14:33:25;28.40;85.30
30385;DHT22;17181;51.002;4.096;2022-10-20T14:35:56;28.40;86.90
30385;DHT22;17181;51.002;4.096;2022-10-20T14:38:28;28.60;85.00
30385;DHT22;17181;51.002;4.096;2022-10-20T14:40:56;28.60;85.00
30385;DHT22;17181;51.002;4.096;2022-10-20T14:43:46;28.80;84.00
30385;DHT22;17181;51.002;4.096;2022-10-20T14:46:20;29.00;84.60
30385;DHT22;17181;51.002;4.096;2022-10-20T14:48:48;29.20;82.00
30385;DHT22;17181;51.002;4.096;2022-10-20T14:51:31;29.20;82.30
30385;DHT22;17181;51.002;4.096;2022-10-20T14:56:58;29.60;80.90
30385;DHT22;17181;51.002;4.096;2022-10-20T14:59:26;29.70;80.90
30385;DHT22;17181;51.002;4.096;2022-10-20T15:04:34;29.80;77.50
30385;DHT22;17181;51.002;4.096;2022-10-20T15:07:18;29.60;78.30
30385;DHT22;17181;51.002;4.096;2022-10-20T15:09:52;29.50;77.70
30385;DHT22;17181;51.002;4.096;2022-10-20T15:12:23;29.30;77.30
30385;DHT22;17181;51.002;4.096;2022-10-20T15:14:53;28.80;76.50
30385;DHT22;17181;51.002;4.096;2022-10-20T15:17:38;28.10;77.90
30385;DHT22;17181;51.002;4.096;2022-10-20T15:20:34;27.60;79.10
30385;DHT22;17181;51.002;4.096;2022-10-20T15:23:12;27.10;80.00
30385;DHT22;17181;51.002;4.096;2022-10-20T15:30:56;25.60;82.70
30385;DHT22;17181;51.002;4.096;2022-10-20T15:33:22;25.20;83.70
30385;DHT22;17181;51.002;4.096;2022-10-20T15:35:48;24.90;84.60
30385;DHT22;17181;51.002;4.096;2022-10-20T15:38:15;24.60;85.60
30385;DHT22;17181;51.002;4.096;2022-10-20T15:40:41;24.30;86.30
30385;DHT22;17181;51.002;4.096;2022-10-20T15:43:15;24.10;87.00
30385;DHT22;17181;51.002;4.096;2022-10-20T15:45:59;24.00;88.10
30385;DHT22;17181;51.002;4.096;2022-10-20T15:48:25;23.90;89.30
30385;DHT22;17181;51.002;4.096;2022-10-20T15:50:56;24.00;89.40
30385;DHT22;17181;51.002;4.096;2022-10-20T15:53:23;24.00;89.60
30385;DHT22;17181;51.002;4.096;2022-10-20T15:55:49;23.80;89.80
30385;DHT22;17181;51.002;4.096;2022-10-20T15:58:15;23.80;90.10
30385;DHT22;17181;51.002;4.096;2022-10-20T16:00:41;23.70;90.40
30385;DHT22;17181;51.002;4.096;2022-10-20T16:03:12;23.70;90.60
30385;DHT22;17181;51.002;4.096;2022-10-20T16:05:40;23.70;90.80
30385;DHT22;17181;51.002;4.096;2022-10-20T16:08:06;23.60;90.90
30385;DHT22;17181;51.002;4.096;2022-10-20T16:10:31;23.60;91.10
30385;DHT22;17181;51.002;4.096;2022-10-20T16:12:57;23.50;91.30
30385;DHT22;17181;51.002;4.096;2022-10-20T16:15:24;23.40;91.50
30385;DHT22;17181;51.002;4.096;2022-10-20T16:17:50;23.40;91.70
30385;DHT22;17181;51.002;4.096;2022-10-20T16:20:16;23.20;91.90
30385;DHT22;17181;51.002;4.096;2022-10-20T16:22:41;23.20;92.10
30385;DHT22;17181;51.002;4.096;2022-10-20T16:25:07;23.10;92.30
30385;DHT22;17181;51.002;4.096;2022-10-20T16:27:33;23.00;92.40
30385;DHT22;17181;51.002;4.096;2022-10-20T16:29:59;23.00;92.70
30385;DHT22;17181;51.002;4.096;2022-10-20T16:32:26;22.90;92.80
30385;DHT22;17181;51.002;4.096;2022-10-20T16:34:52;22.80;93.00
30385;DHT22;17181;51.002;4.096;2022-10-20T16:37:18;22.70;93.10
30385;DHT22;17181;51.002;4.096;2022-10-20T16:39:43;22.60;93.30
30385;DHT22;17181;51.002;4.096;2022-10-20T16:48:15;22.30;93.90
30385;DHT22;17181;51.002;4.096;2022-10-20T16:50:41;22.10;93.90
30385;DHT22;17181;51.002;4.096;2022-10-20T16:53:07;22.00;94.20
30385;DHT22;17181;51.002;4.096;2022-10-20T16:55:34;21.90;94.30
30385;DHT22;17181;51.002;4.096;2022-10-20T16:57:59;21.80;94.60
30385;DHT22;17181;51.002;4.096;2022-10-20T17:00:25;21.70;94.80
30385;DHT22;17181;51.002;4.096;2022-10-20T17:02:51;21.70;95.00
30385;DHT22;17181;51.002;4.096;2022-10-20T17:05:21;21.60;95.20
30385;DHT22;17181;51.002;4.096;2022-10-20T17:07:47;21.60;95.40
30385;DHT22;17181;51.002;4.096;2022-10-20T17:10:14;21.50;95.60
30385;DHT22;17181;51.002;4.096;2022-10-20T17:12:39;21.50;95.80
30385;DHT22;17181;51.002;4.096;2022-10-20T17:15:06;21.40;96.00
30385;DHT22;17181;51.002;4.096;2022-10-20T17:17:32;21.40;96.10
30385;DHT22;17181;51.002;4.096;2022-10-20T17:19:57;21.30;96.20
30385;DHT22;17181;51.002;4.096;2022-10-20T17:22:23;21.20;96.30
30385;DHT22;17181;51.002;4.096;2022-10-20T17:24:49;21.10;96.50
30385;DHT22;17181;51.002;4.096;2022-10-20T17:27:15;21.00;96.60
30385;DHT22;17181;51.002;4.096;2022-10-20T17:29:40;21.00;96.80
30385;DHT22;17181;51.002;4.096;2022-10-20T17:32:06;20.90;96.90
30385;DHT22;17181;51.002;4.096;2022-10-20T17:34:32;20.90;97.10
30385;DHT22;17181;51.002;4.096;2022-10-20T17:36:58;20.80;97.30
30385;DHT22;17181;51.002;4.096;2022-10-20T17:39:24;20.70;97.40
30385;DHT22;17181;51.002;4.096;2022-10-20T17:41:50;20.70;97.60
30385;DHT22;17181;51.002;4.096;2022-10-20T17:44:15;20.60;97.80
30385;DHT22;17181;51.002;4.096;2022-10-20T17:46:41;20.60;98.00
30385;DHT22;17181;51.002;4.096;2022-10-20T17:49:07;20.50;98.00
30385;DHT22;17181;51.002;4.096;2022-10-20T17:51:34;20.50;98.10
30385;DHT22;17181;51.002;4.096;2022-10-20T17:53:59;20.40;98.30